sensor_id;sensor_type;location;lat;lon;timestamp;pressure;altitude;pressure_sealevel;temperature;humidity
62600;BME280;48671;48.922;2.346;2023-06-14T00:02:00;100909.34;;;28.42;31.64
62600;BME280;48671;48.922;2.346;2023-06-14T00:04:26;100913.66;;;28.35;31.40
62600;BME280;48671;48.922;2.346;2023-06-14T00:06:51;100914.00;;;28.32;31.96
62600;BME280;48671;48.922;2.346;2023-06-14T00:09:18;100910.69;;;28.21;32.20
62600;BME280;48671;48.922;2.346;2023-06-14T00:11:44;100912.53;;;28.21;31.81
62600;BME280;48671;48.922;2.346;2023-06-14T00:14:09;100915.03;;;28.14;32.12
62600;BME280;48671;48.922;2.346;2023-06-14T00:16:35;100904.88;;;27.93;32.20
62600;BME280;48671;48.922;2.346;2023-06-14T00:19:02;100910.41;;;27.84;32.15
62600;BME280;48671;48.922;2.346;2023-06-14T00:21:31;100914.56;;;27.94;32.54
62600;BME280;48671;48.922;2.346;2023-06-14T00:23:58;100901.88;;;27.80;32.96
62600;BME280;48671;48.922;2.346;2023-06-14T00:26:23;100919.94;;;27.86;32.76
62600;BME280;48671;48.922;2.346;2023-06-14T00:28:49;100921.09;;;27.84;32.50
62600;BME280;48671;48.922;2.346;2023-06-14T00:31:14;100921.41;;;27.81;32.44
62600;BME280;48671;48.922;2.346;2023-06-14T00:33:40;100911.00;;;27.69;33.03
62600;BME280;48671;48.922;2.346;2023-06-14T00:36:05;100922.88;;;27.67;32.81
62600;BME280;48671;48.922;2.346;2023-06-14T00:38:30;100905.81;;;27.51;33.45
62600;BME280;48671;48.922;2.346;2023-06-14T00:40:55;100913.50;;;27.54;33.39
62600;BME280;48671;48.922;2.346;2023-06-14T00:43:21;100931.06;;;27.57;33.72
62600;BME280;48671;48.922;2.346;2023-06-14T00:45:46;100928.06;;;27.60;33.57
62600;BME280;48671;48.922;2.346;2023-06-14T00:48:13;100927.19;;;27.60;33.66
62600;BME280;48671;48.922;2.346;2023-06-14T00:50:39;100922.69;;;27.52;33.61
62600;BME280;48671;48.922;2.346;2023-06-14T00:53:05;100938.03;;;27.50;33.83
62600;BME280;48671;48.922;2.346;2023-06-14T00:55:31;100932.00;;;27.40;33.49
62600;BME280;48671;48.922;2.346;2023-06-14T00:57:58;100927.84;;;27.37;33.87
62600;BME280;48671;48.922;2.346;2023-06-14T01:00:23;100939.53;;;27.36;33.61
62600;BME280;48671;48.922;2.346;2023-06-14T01:02:49;100935.19;;;27.35;33.61
62600;BME280;48671;48.922;2.346;2023-06-14T01:05:17;100930.81;;;27.26;33.86
62600;BME280;48671;48.922;2.346;2023-06-14T01:07:53;100935.16;;;27.27;34.14
62600;BME280;48671;48.922;2.346;2023-06-14T01:13:12;100947.50;;;27.20;34.30
62600;BME280;48671;48.922;2.346;2023-06-14T01:15:38;100937.13;;;27.17;34.86
62600;BME280;48671;48.922;2.346;2023-06-14T01:18:04;100944.50;;;27.15;34.64
62600;BME280;48671;48.922;2.346;2023-06-14T01:20:32;100936.06;;;27.09;35.20
62600;BME280;48671;48.922;2.346;2023-06-14T01:22:58;100933.41;;;27.09;35.09
62600;BME280;48671;48.922;2.346;2023-06-14T01:25:25;100932.78;;;27.16;34.97
62600;BME280;48671;48.922;2.346;2023-06-14T01:27:55;100942.47;;;27.17;34.77
62600;BME280;48671;48.922;2.346;2023-06-14T01:30:23;100923.53;;;27.02;34.52
62600;BME280;48671;48.922;2.346;2023-06-14T01:32:51;100949.44;;;27.09;35.10
62600;BME280;48671;48.922;2.346;2023-06-14T01:35:17;100941.75;;;27.06;35.26
62600;BME280;48671;48.922;2.346;2023-06-14T01:37:43;100945.94;;;27.09;35.55
62600;BME280;48671;48.922;2.346;2023-06-14T01:40:09;100934.94;;;27.12;34.52
62600;BME280;48671;48.922;2.346;2023-06-14T01:42:36;100932.06;;;27.05;35.44
62600;BME280;48671;48.922;2.346;2023-06-14T01:45:04;100930.91;;;27.08;34.61
62600;BME280;48671;48.922;2.346;2023-06-14T01:47:31;100933.53;;;27.00;34.63
62600;BME280;48671;48.922;2.346;2023-06-14T01:49:58;100928.38;;;26.98;34.87
62600;BME280;48671;48.922;2.346;2023-06-14T01:52:23;100936.38;;;26.98;35.18
62600;BME280;48671;48.922;2.346;2023-06-14T01:54:50;100930.47;;;26.87;35.56
62600;BME280;48671;48.922;2.346;2023-06-14T01:57:15;100942.19;;;26.94;35.58
62600;BME280;48671;48.922;2.346;2023-06-14T01:59:41;100926.28;;;26.84;35.44
62600;BME280;48671;48.922;2.346;2023-06-14T02:02:06;100939.63;;;26.84;35.74
62600;BME280;48671;48.922;2.346;2023-06-14T02:04:31;100940.47;;;26.84;34.91
62600;BME280;48671;48.922;2.346;2023-06-14T02:06:57;100937.66;;;26.86;35.31
62600;BME280;48671;48.922;2.346;2023-06-14T02:09:22;100935.00;;;26.86;34.94
62600;BME280;48671;48.922;2.346;2023-06-14T02:11:48;100932.47;;;26.84;36.18
62600;BME280;48671;48.922;2.346;2023-06-14T02:14:14;100934.78;;;26.79;35.27
62600;BME280;48671;48.922;2.346;2023-06-14T02:16:39;100938.59;;;26.77;36.47
62600;BME280;48671;48.922;2.346;2023-06-14T02:19:05;100934.41;;;26.74;35.60
62600;BME280;48671;48.922;2.346;2023-06-14T02:21:30;100939.75;;;26.74;35.66
62600;BME280;48671;48.922;2.346;2023-06-14T02:23:56;100938.28;;;26.72;36.21
62600;BME280;48671;48.922;2.346;2023-06-14T02:26:21;100947.94;;;26.73;36.28
62600;BME280;48671;48.922;2.346;2023-06-14T02:28:48;100948.56;;;26.67;36.32
62600;BME280;48671;48.922;2.346;2023-06-14T02:31:13;100938.19;;;26.55;35.90
62600;BME280;48671;48.922;2.346;2023-06-14T02:33:38;100940.16;;;26.53;36.17
62600;BME280;48671;48.922;2.346;2023-06-14T02:36:04;100938.50;;;26.52;36.53
62600;BME280;48671;48.922;2.346;2023-06-14T02:38:30;100943.97;;;26.51;37.11
62600;BME280;48671;48.922;2.346;2023-06-14T02:40:55;100954.66;;;26.51;36.31
62600;BME280;48671;48.922;2.346;2023-06-14T02:43:21;100957.78;;;26.46;36.52
62600;BME280;48671;48.922;2.346;2023-06-14T02:45:46;100942.00;;;26.35;36.59
62600;BME280;48671;48.922;2.346;2023-06-14T02:48:11;100948.50;;;26.32;36.60
62600;BME280;48671;48.922;2.346;2023-06-14T02:50:37;100963.34;;;26.35;36.91
62600;BME280;48671;48.922;2.346;2023-06-14T02:53:02;100946.81;;;26.31;37.32
62600;BME280;48671;48.922;2.346;2023-06-14T02:55:28;100954.69;;;26.33;36.78
62600;BME280;48671;48.922;2.346;2023-06-14T02:57:53;100954.28;;;26.28;36.69
62600;BME280;48671;48.922;2.346;2023-06-14T03:00:19;100948.13;;;26.27;36.75
62600;BME280;48671;48.922;2.346;2023-06-14T03:02:44;100960.09;;;26.23;37.65
62600;BME280;48671;48.922;2.346;2023-06-14T03:05:10;100955.69;;;26.14;37.32
62600;BME280;48671;48.922;2.346;2023-06-14T03:07:36;100951.44;;;26.03;37.37
62600;BME280;48671;48.922;2.346;2023-06-14T03:10:09;100948.69;;;25.95;37.94
62600;BME280;48671;48.922;2.346;2023-06-14T03:12:35;100954.88;;;25.96;38.21
62600;BME280;48671;48.922;2.346;2023-06-14T03:15:02;100971.41;;;25.99;37.36
62600;BME280;48671;48.922;2.346;2023-06-14T03:17:27;100966.22;;;25.98;37.78
62600;BME280;48671;48.922;2.346;2023-06-14T03:19:55;100958.16;;;25.89;38.55
62600;BME280;48671;48.922;2.346;2023-06-14T03:22:20;100967.53;;;25.94;37.56
62600;BME280;48671;48.922;2.346;2023-06-14T03:24:47;100971.63;;;25.88;38.36
62600;BME280;48671;48.922;2.346;2023-06-14T03:27:12;100973.16;;;25.90;38.27
62600;BME280;48671;48.922;2.346;2023-06-14T03:29:39;100976.13;;;25.87;38.31
62600;BME280;48671;48.922;2.346;2023-06-14T03:32:05;100977.28;;;25.85;38.25
62600;BME280;48671;48.922;2.346;2023-06-14T03:34:30;100992.81;;;25.89;37.86
62600;BME280;48671;48.922;2.346;2023-06-14T03:36:55;100980.63;;;25.87;38.60
62600;BME280;48671;48.922;2.346;2023-06-14T03:39:21;100980.47;;;25.88;38.12
62600;BME280;48671;48.922;2.346;2023-06-14T03:41:46;100988.34;;;25.90;38.17
62600;BME280;48671;48.922;2.346;2023-06-14T03:44:15;100987.94;;;25.85;37.74
62600;BME280;48671;48.922;2.346;2023-06-14T03:46:40;100996.09;;;25.83;37.85
62600;BME280;48671;48.922;2.346;2023-06-14T03:49:06;100989.28;;;25.71;38.12
62600;BME280;48671;48.922;2.346;2023-06-14T03:51:32;100984.84;;;25.62;38.60
62600;BME280;48671;48.922;2.346;2023-06-14T03:54:00;101002.06;;;25.67;38.11
62600;BME280;48671;48.922;2.346;2023-06-14T03:56:25;100995.09;;;25.57;38.53
62600;BME280;48671;48.922;2.346;2023-06-14T03:58:50;101009.97;;;25.59;38.41
62600;BME280;48671;48.922;2.346;2023-06-14T04:01:15;100997.09;;;25.55;38.18
62600;BME280;48671;48.922;2.346;2023-06-14T04:03:41;101010.56;;;25.53;38.60
62600;BME280;48671;48.922;2.346;2023-06-14T04:06:06;101009.06;;;25.51;38.05
62600;BME280;48671;48.922;2.346;2023-06-14T04:08:32;101001.13;;;25.41;38.43
62600;BME280;48671;48.922;2.346;2023-06-14T04:10:58;101006.72;;;25.38;38.34
62600;BME280;48671;48.922;2.346;2023-06-14T04:13:23;101011.31;;;25.18;38.62
62600;BME280;48671;48.922;2.346;2023-06-14T04:15:48;101007.84;;;24.98;38.85
62600;BME280;48671;48.922;2.346;2023-06-14T04:18:14;101018.97;;;24.84;39.15
62600;BME280;48671;48.922;2.346;2023-06-14T04:20:39;101015.47;;;24.83;39.34
62600;BME280;48671;48.922;2.346;2023-06-14T04:23:15;101018.69;;;24.87;39.41
62600;BME280;48671;48.922;2.346;2023-06-14T04:25:43;101023.97;;;24.96;39.41
62600;BME280;48671;48.922;2.346;2023-06-14T04:28:10;101018.50;;;24.98;39.68
62600;BME280;48671;48.922;2.346;2023-06-14T04:30:36;101036.53;;;25.04;39.52
62600;BME280;48671;48.922;2.346;2023-06-14T04:33:04;101018.50;;;24.98;39.86
62600;BME280;48671;48.922;2.346;2023-06-14T04:35:31;101033.63;;;24.97;39.75
62600;BME280;48671;48.922;2.346;2023-06-14T04:37:58;101030.41;;;24.94;40.05
62600;BME280;48671;48.922;2.346;2023-06-14T04:40:24;101034.47;;;24.98;40.18
62600;BME280;48671;48.922;2.346;2023-06-14T04:42:49;101035.88;;;25.02;40.03
62600;BME280;48671;48.922;2.346;2023-06-14T04:45:16;101040.63;;;25.08;39.17
62600;BME280;48671;48.922;2.346;2023-06-14T04:47:42;101042.13;;;25.11;39.66
62600;BME280;48671;48.922;2.346;2023-06-14T04:50:07;101039.47;;;25.20;39.16
62600;BME280;48671;48.922;2.346;2023-06-14T04:52:33;101047.84;;;25.26;39.49
62600;BME280;48671;48.922;2.346;2023-06-14T04:55:00;101045.69;;;25.39;40.06
62600;BME280;48671;48.922;2.346;2023-06-14T04:57:27;101036.41;;;25.43;39.58
62600;BME280;48671;48.922;2.346;2023-06-14T04:59:52;101051.81;;;25.49;40.08
62600;BME280;48671;48.922;2.346;2023-06-14T05:02:23;101034.44;;;25.45;39.10
62600;BME280;48671;48.922;2.346;2023-06-14T05:04:49;101043.22;;;25.55;39.46
62600;BME280;48671;48.922;2.346;2023-06-14T05:07:15;101041.63;;;25.62;39.08
62600;BME280;48671;48.922;2.346;2023-06-14T05:09:40;101044.84;;;25.66;39.22
62600;BME280;48671;48.922;2.346;2023-06-14T05:12:06;101045.91;;;25.73;39.28
62600;BME280;48671;48.922;2.346;2023-06-14T05:14:35;101052.78;;;25.76;39.27
62600;BME280;48671;48.922;2.346;2023-06-14T05:17:00;101037.00;;;25.64;38.73
62600;BME280;48671;48.922;2.346;2023-06-14T05:19:26;101043.00;;;25.66;38.62
62600;BME280;48671;48.922;2.346;2023-06-14T05:21:51;101040.63;;;25.63;38.57
62600;BME280;48671;48.922;2.346;2023-06-14T05:24:18;101040.88;;;25.70;38.37
62600;BME280;48671;48.922;2.346;2023-06-14T05:26:43;101041.44;;;25.74;38.24
62600;BME280;48671;48.922;2.346;2023-06-14T05:29:09;101052.97;;;25.92;38.55
62600;BME280;48671;48.922;2.346;2023-06-14T05:31:34;101041.78;;;25.88;38.45
62600;BME280;48671;48.922;2.346;2023-06-14T05:33:59;101056.47;;;25.92;38.22
62600;BME280;48671;48.922;2.346;2023-06-14T05:36:25;101055.03;;;25.98;38.69
62600;BME280;48671;48.922;2.346;2023-06-14T05:38:51;101062.81;;;26.09;37.68
62600;BME280;48671;48.922;2.346;2023-06-14T05:41:16;101059.31;;;26.09;37.92
62600;BME280;48671;48.922;2.346;2023-06-14T05:43:42;101059.75;;;26.22;37.40
62600;BME280;48671;48.922;2.346;2023-06-14T05:46:07;101053.06;;;26.18;37.78
62600;BME280;48671;48.922;2.346;2023-06-14T05:48:32;101059.09;;;26.20;37.72
62600;BME280;48671;48.922;2.346;2023-06-14T05:50:58;101059.53;;;26.15;37.56
62600;BME280;48671;48.922;2.346;2023-06-14T05:53:23;101062.19;;;26.15;37.52
62600;BME280;48671;48.922;2.346;2023-06-14T05:55:50;101050.19;;;26.11;37.23
62600;BME280;48671;48.922;2.346;2023-06-14T05:58:18;101058.41;;;26.18;37.64
62600;BME280;48671;48.922;2.346;2023-06-14T06:00:44;101061.47;;;26.23;36.92
62600;BME280;48671;48.922;2.346;2023-06-14T06:03:09;101052.47;;;26.24;37.11
62600;BME280;48671;48.922;2.346;2023-06-14T06:05:36;101053.59;;;26.22;37.35
62600;BME280;48671;48.922;2.346;2023-06-14T06:08:01;101051.69;;;26.32;36.60
62600;BME280;48671;48.922;2.346;2023-06-14T06:10:27;101072.28;;;26.39;36.50
62600;BME280;48671;48.922;2.346;2023-06-14T06:12:52;101055.34;;;26.31;36.74
62600;BME280;48671;48.922;2.346;2023-06-14T06:15:20;101069.22;;;26.34;36.46
62600;BME280;48671;48.922;2.346;2023-06-14T06:17:45;101061.59;;;26.39;36.92
62600;BME280;48671;48.922;2.346;2023-06-14T06:20:11;101073.34;;;26.47;36.87
62600;BME280;48671;48.922;2.346;2023-06-14T06:22:37;101068.00;;;26.47;36.28
62600;BME280;48671;48.922;2.346;2023-06-14T06:25:02;101062.44;;;26.58;35.86
62600;BME280;48671;48.922;2.346;2023-06-14T06:27:28;101085.00;;;26.64;36.47
62600;BME280;48671;48.922;2.346;2023-06-14T06:29:53;101081.84;;;26.68;35.95
62600;BME280;48671;48.922;2.346;2023-06-14T06:32:18;101081.94;;;26.76;36.39
62600;BME280;48671;48.922;2.346;2023-06-14T06:34:44;101089.00;;;26.85;35.93
62600;BME280;48671;48.922;2.346;2023-06-14T06:37:10;101081.84;;;26.86;36.41
62600;BME280;48671;48.922;2.346;2023-06-14T06:39:35;101087.22;;;26.94;35.61
62600;BME280;48671;48.922;2.346;2023-06-14T06:42:01;101090.88;;;26.93;35.62
62600;BME280;48671;48.922;2.346;2023-06-14T06:44:26;101085.09;;;26.98;35.94
62600;BME280;48671;48.922;2.346;2023-06-14T06:46:51;101085.81;;;27.08;36.16
62600;BME280;48671;48.922;2.346;2023-06-14T06:49:17;101081.81;;;27.12;35.17
62600;BME280;48671;48.922;2.346;2023-06-14T06:51:42;101099.19;;;27.34;35.32
62600;BME280;48671;48.922;2.346;2023-06-14T06:54:09;101099.38;;;27.41;34.25
62600;BME280;48671;48.922;2.346;2023-06-14T06:56:35;101093.84;;;27.42;34.55
62600;BME280;48671;48.922;2.346;2023-06-14T06:59:00;101104.09;;;27.55;34.11
62600;BME280;48671;48.922;2.346;2023-06-14T07:01:26;101109.81;;;27.60;34.89
62600;BME280;48671;48.922;2.346;2023-06-14T07:03:54;101102.31;;;27.64;33.77
62600;BME280;48671;48.922;2.346;2023-06-14T07:06:19;101095.78;;;27.66;33.67
62600;BME280;48671;48.922;2.346;2023-06-14T07:08:45;101108.72;;;27.79;34.26
62600;BME280;48671;48.922;2.346;2023-06-14T07:11:11;101091.53;;;27.82;33.97
62600;BME280;48671;48.922;2.346;2023-06-14T07:13:36;101109.44;;;27.89;33.83
62600;BME280;48671;48.922;2.346;2023-06-14T07:16:04;101111.13;;;27.98;32.67
62600;BME280;48671;48.922;2.346;2023-06-14T07:18:29;101113.16;;;28.05;32.81
62600;BME280;48671;48.922;2.346;2023-06-14T07:20:55;101117.84;;;28.11;33.03
62600;BME280;48671;48.922;2.346;2023-06-14T07:23:22;101117.84;;;28.11;31.17
62600;BME280;48671;48.922;2.346;2023-06-14T07:25:47;101116.16;;;28.01;31.22
62600;BME280;48671;48.922;2.346;2023-06-14T07:28:12;101125.56;;;28.14;31.66
62600;BME280;48671;48.922;2.346;2023-06-14T07:30:38;101133.75;;;28.12;30.25
62600;BME280;48671;48.922;2.346;2023-06-14T07:33:03;101124.34;;;28.08;30.70
62600;BME280;48671;48.922;2.346;2023-06-14T07:35:28;101144.50;;;28.29;31.20
62600;BME280;48671;48.922;2.346;2023-06-14T07:37:54;101135.44;;;28.30;31.36
62600;BME280;48671;48.922;2.346;2023-06-14T07:40:19;101140.81;;;28.30;31.46
62600;BME280;48671;48.922;2.346;2023-06-14T07:42:44;101144.53;;;28.45;31.45
62600;BME280;48671;48.922;2.346;2023-06-14T07:45:13;101151.91;;;28.59;31.53
62600;BME280;48671;48.922;2.346;2023-06-14T07:47:38;101156.59;;;28.65;32.03
62600;BME280;48671;48.922;2.346;2023-06-14T07:50:04;101155.06;;;28.71;31.28
62600;BME280;48671;48.922;2.346;2023-06-14T07:52:29;101145.03;;;28.73;31.68
62600;BME280;48671;48.922;2.346;2023-06-14T07:54:55;101144.53;;;28.86;31.92
62600;BME280;48671;48.922;2.346;2023-06-14T07:57:22;101141.03;;;28.85;31.51
62600;BME280;48671;48.922;2.346;2023-06-14T07:59:47;101144.38;;;28.96;30.80
62600;BME280;48671;48.922;2.346;2023-06-14T08:02:12;101157.56;;;28.97;30.99
62600;BME280;48671;48.922;2.346;2023-06-14T08:04:38;101141.34;;;29.07;30.99
62600;BME280;48671;48.922;2.346;2023-06-14T08:07:04;101153.88;;;29.23;30.68
62600;BME280;48671;48.922;2.346;2023-06-14T08:09:29;101150.38;;;29.22;31.10
62600;BME280;48671;48.922;2.346;2023-06-14T08:11:55;101148.66;;;29.37;30.19
62600;BME280;48671;48.922;2.346;2023-06-14T08:14:20;101146.44;;;29.49;31.31
62600;BME280;48671;48.922;2.346;2023-06-14T08:16:46;101155.81;;;29.61;31.42
62600;BME280;48671;48.922;2.346;2023-06-14T08:19:11;101144.38;;;29.76;31.09
62600;BME280;48671;48.922;2.346;2023-06-14T08:21:36;101157.56;;;29.85;30.12
62600;BME280;48671;48.922;2.346;2023-06-14T08:24:02;101155.69;;;29.94;29.96
62600;BME280;48671;48.922;2.346;2023-06-14T08:26:28;101152.66;;;29.97;29.89
62600;BME280;48671;48.922;2.346;2023-06-14T08:28:55;101159.69;;;29.98;29.52
62600;BME280;48671;48.922;2.346;2023-06-14T08:31:21;101162.69;;;30.03;30.66
62600;BME280;48671;48.922;2.346;2023-06-14T08:33:46;101153.38;;;30.14;30.91
62600;BME280;48671;48.922;2.346;2023-06-14T08:36:12;101157.56;;;30.25;30.27
62600;BME280;48671;48.922;2.346;2023-06-14T08:38:38;101158.94;;;30.44;29.81
62600;BME280;48671;48.922;2.346;2023-06-14T08:41:05;101158.41;;;30.48;29.78
62600;BME280;48671;48.922;2.346;2023-06-14T08:43:31;101168.25;;;30.56;29.09
62600;BME280;48671;48.922;2.346;2023-06-14T08:46:03;101157.44;;;30.64;28.94
62600;BME280;48671;48.922;2.346;2023-06-14T08:48:31;101161.38;;;30.76;29.37
62600;BME280;48671;48.922;2.346;2023-06-14T08:51:00;101158.66;;;30.85;27.71
62600;BME280;48671;48.922;2.346;2023-06-14T08:53:32;101160.88;;;30.81;27.92
62600;BME280;48671;48.922;2.346;2023-06-14T08:55:59;101162.31;;;30.84;27.25
62600;BME280;48671;48.922;2.346;2023-06-14T08:58:30;101168.00;;;30.89;24.91
62600;BME280;48671;48.922;2.346;2023-06-14T09:00:57;101160.50;;;30.99;26.23
62600;BME280;48671;48.922;2.346;2023-06-14T09:03:22;101151.81;;;30.97;26.25
62600;BME280;48671;48.922;2.346;2023-06-14T09:05:56;101167.50;;;31.08;25.49
62600;BME280;48671;48.922;2.346;2023-06-14T09:08:21;101161.66;;;31.19;25.71
62600;BME280;48671;48.922;2.346;2023-06-14T09:10:48;101163.44;;;31.27;25.71
62600;BME280;48671;48.922;2.346;2023-06-14T09:13:13;101159.91;;;31.27;24.47
62600;BME280;48671;48.922;2.346;2023-06-14T09:15:39;101164.19;;;31.36;24.99
62600;BME280;48671;48.922;2.346;2023-06-14T09:18:04;101167.47;;;31.46;23.74
62600;BME280;48671;48.922;2.346;2023-06-14T09:20:31;101170.41;;;31.51;22.70
62600;BME280;48671;48.922;2.346;2023-06-14T09:22:57;101159.22;;;31.62;23.03
62600;BME280;48671;48.922;2.346;2023-06-14T09:25:23;101169.19;;;31.68;20.57
62600;BME280;48671;48.922;2.346;2023-06-14T09:27:51;101161.31;;;31.67;22.05
62600;BME280;48671;48.922;2.346;2023-06-14T09:30:20;101165.47;;;31.84;22.60
62600;BME280;48671;48.922;2.346;2023-06-14T09:32:45;101166.13;;;32.01;22.42
62600;BME280;48671;48.922;2.346;2023-06-14T09:35:11;101167.88;;;32.09;22.56
62600;BME280;48671;48.922;2.346;2023-06-14T09:37:37;101164.88;;;32.18;21.99
62600;BME280;48671;48.922;2.346;2023-06-14T09:40:05;101172.19;;;32.25;20.68
62600;BME280;48671;48.922;2.346;2023-06-14T09:42:32;101170.66;;;32.37;21.89
62600;BME280;48671;48.922;2.346;2023-06-14T09:45:02;101177.00;;;32.44;22.53
62600;BME280;48671;48.922;2.346;2023-06-14T09:47:28;101172.78;;;32.41;21.39
62600;BME280;48671;48.922;2.346;2023-06-14T09:49:54;101170.63;;;32.52;21.43
62600;BME280;48671;48.922;2.346;2023-06-14T09:52:21;101183.84;;;32.68;21.60
62600;BME280;48671;48.922;2.346;2023-06-14T09:54:48;101179.34;;;32.75;21.08
62600;BME280;48671;48.922;2.346;2023-06-14T09:57:21;101172.63;;;32.93;20.45
62600;BME280;48671;48.922;2.346;2023-06-14T09:59:47;101168.72;;;32.95;20.25
62600;BME280;48671;48.922;2.346;2023-06-14T10:02:25;101177.63;;;33.17;20.88
62600;BME280;48671;48.922;2.346;2023-06-14T10:05:12;101187.25;;;33.26;18.76
62600;BME280;48671;48.922;2.346;2023-06-14T10:07:58;101188.16;;;33.40;19.84
62600;BME280;48671;48.922;2.346;2023-06-14T10:10:24;101180.06;;;33.40;19.24
62600;BME280;48671;48.922;2.346;2023-06-14T10:12:50;101182.78;;;33.47;18.87
62600;BME280;48671;48.922;2.346;2023-06-14T10:15:23;101185.59;;;33.60;19.40
62600;BME280;48671;48.922;2.346;2023-06-14T10:18:01;101185.88;;;33.72;18.37
62600;BME280;48671;48.922;2.346;2023-06-14T10:20:39;101179.47;;;33.79;18.50
62600;BME280;48671;48.922;2.346;2023-06-14T10:23:11;101182.41;;;33.85;19.16
62600;BME280;48671;48.922;2.346;2023-06-14T10:25:38;101183.22;;;33.85;18.34
62600;BME280;48671;48.922;2.346;2023-06-14T10:28:20;101179.25;;;33.88;17.90
62600;BME280;48671;48.922;2.346;2023-06-14T10:31:03;101187.63;;;33.99;18.68
62600;BME280;48671;48.922;2.346;2023-06-14T10:33:33;101185.19;;;34.05;17.79
62600;BME280;48671;48.922;2.346;2023-06-14T10:36:25;101184.78;;;34.01;17.94
62600;BME280;48671;48.922;2.346;2023-06-14T10:39:16;101178.44;;;33.87;17.30
62600;BME280;48671;48.922;2.346;2023-06-14T10:41:50;101177.81;;;33.78;18.22
62600;BME280;48671;48.922;2.346;2023-06-14T10:46:49;101174.69;;;33.75;17.44
62600;BME280;48671;48.922;2.346;2023-06-14T10:49:18;101178.84;;;33.84;17.76
62600;BME280;48671;48.922;2.346;2023-06-14T10:51:57;101167.22;;;33.84;17.97
62600;BME280;48671;48.922;2.346;2023-06-14T10:54:23;101168.94;;;33.98;18.68
62600;BME280;48671;48.922;2.346;2023-06-14T10:56:52;101180.00;;;34.10;17.58
62600;BME280;48671;48.922;2.346;2023-06-14T10:59:19;101171.94;;;34.23;18.08
62600;BME280;48671;48.922;2.346;2023-06-14T11:04:50;101163.25;;;34.28;18.44
62600;BME280;48671;48.922;2.346;2023-06-14T11:10:36;101165.53;;;34.24;18.35
62600;BME280;48671;48.922;2.346;2023-06-14T11:13:02;101177.31;;;34.16;18.42
62600;BME280;48671;48.922;2.346;2023-06-14T11:15:38;101169.66;;;34.26;18.58
62600;BME280;48671;48.922;2.346;2023-06-14T11:18:07;101159.09;;;34.38;17.98
62600;BME280;48671;48.922;2.346;2023-06-14T11:20:35;101149.34;;;34.44;18.04
62600;BME280;48671;48.922;2.346;2023-06-14T11:23:02;101153.31;;;34.55;19.08
62600;BME280;48671;48.922;2.346;2023-06-14T11:25:27;101152.91;;;34.71;18.30
62600;BME280;48671;48.922;2.346;2023-06-14T11:27:53;101159.97;;;34.92;18.61
62600;BME280;48671;48.922;2.346;2023-06-14T11:30:19;101150.00;;;34.99;17.15
62600;BME280;48671;48.922;2.346;2023-06-14T11:32:48;101152.91;;;34.98;17.52
62600;BME280;48671;48.922;2.346;2023-06-14T11:35:13;101156.84;;;35.08;18.30
62600;BME280;48671;48.922;2.346;2023-06-14T11:37:39;101143.50;;;35.27;18.05
62600;BME280;48671;48.922;2.346;2023-06-14T11:40:06;101144.94;;;35.42;18.63
62600;BME280;48671;48.922;2.346;2023-06-14T11:42:35;101145.34;;;35.53;18.24
62600;BME280;48671;48.922;2.346;2023-06-14T11:45:01;101150.31;;;35.56;17.93
62600;BME280;48671;48.922;2.346;2023-06-14T11:47:39;101152.19;;;35.62;18.01
62600;BME280;48671;48.922;2.346;2023-06-14T11:50:06;101156.13;;;35.59;17.67
62600;BME280;48671;48.922;2.346;2023-06-14T11:52:33;101152.38;;;35.60;18.18
62600;BME280;48671;48.922;2.346;2023-06-14T11:54:59;101152.63;;;35.52;17.95
62600;BME280;48671;48.922;2.346;2023-06-14T11:57:25;101147.81;;;35.41;17.69
62600;BME280;48671;48.922;2.346;2023-06-14T11:59:51;101137.03;;;35.28;17.67
62600;BME280;48671;48.922;2.346;2023-06-14T12:02:18;101146.78;;;35.49;18.56
62600;BME280;48671;48.922;2.346;2023-06-14T12:04:46;101143.44;;;35.60;17.79
62600;BME280;48671;48.922;2.346;2023-06-14T12:07:13;101145.09;;;35.61;18.78
62600;BME280;48671;48.922;2.346;2023-06-14T12:12:16;101135.69;;;35.70;18.32
62600;BME280;48671;48.922;2.346;2023-06-14T12:14:42;101136.72;;;35.69;18.08
62600;BME280;48671;48.922;2.346;2023-06-14T12:17:08;101144.44;;;35.72;17.92
62600;BME280;48671;48.922;2.346;2023-06-14T12:19:42;101133.19;;;35.69;18.47
62600;BME280;48671;48.922;2.346;2023-06-14T12:22:10;101142.16;;;35.69;17.90
62600;BME280;48671;48.922;2.346;2023-06-14T12:24:35;101144.44;;;35.72;17.96
62600;BME280;48671;48.922;2.346;2023-06-14T12:27:00;101148.72;;;35.86;17.88
62600;BME280;48671;48.922;2.346;2023-06-14T12:29:28;101127.41;;;36.03;18.15
62600;BME280;48671;48.922;2.346;2023-06-14T12:31:54;101145.22;;;36.24;17.62
62600;BME280;48671;48.922;2.346;2023-06-14T12:34:21;101142.53;;;36.49;17.91
62600;BME280;48671;48.922;2.346;2023-06-14T12:36:47;101139.22;;;36.72;18.46
62600;BME280;48671;48.922;2.346;2023-06-14T12:39:12;101147.78;;;36.94;17.81
62600;BME280;48671;48.922;2.346;2023-06-14T12:41:38;101144.44;;;36.99;17.42
62600;BME280;48671;48.922;2.346;2023-06-14T12:44:03;101147.03;;;37.12;17.72
62600;BME280;48671;48.922;2.346;2023-06-14T12:46:31;101147.41;;;37.16;16.79
62600;BME280;48671;48.922;2.346;2023-06-14T12:49:00;101138.81;;;37.19;16.80
62600;BME280;48671;48.922;2.346;2023-06-14T12:51:26;101146.78;;;37.14;16.01
62600;BME280;48671;48.922;2.346;2023-06-14T12:53:51;101145.91;;;36.95;16.23
62600;BME280;48671;48.922;2.346;2023-06-14T12:56:17;101142.09;;;36.77;16.64
62600;BME280;48671;48.922;2.346;2023-06-14T12:58:43;101153.13;;;36.83;16.41
62600;BME280;48671;48.922;2.346;2023-06-14T13:01:08;101141.94;;;36.72;16.00
62600;BME280;48671;48.922;2.346;2023-06-14T13:03:33;101145.00;;;36.58;16.10